• Join FlightAware (Why Join?)
  • Login
  • US Flag 
12:55PM EDT


 

Airport Tracker/Info


-or-


 

Live Flight TrackerFlight Track Log ✈ ASQ4209 ✈ 14-Jul-2013 ✈ KBTR - KIAH

Flight Track Log - Related Links

Times and Time Zones

All times are in EDT time to prevent confusion due to time zone crossing. See the ASQ4209 flight status page for this flight to view local times or setup timezone preferences in your user account.

Time Position Orientation Groundspeed Altitude Reporting Facility
EDT Latitude Longitude Course Direction KTS MPH feet Rate Location/Type
02:31PM 30.5586 -91.0703 89° East 217 250 4,300  Level Houston Center
02:32PM 30.5028 -91.0922 199° South 219 252 7,700 3,000 Climbing Houston Center
02:33PM 30.4695 -91.5193 257° West  Level FlightAware Approximate
02:33PM 30.4414 -91.1053 190° South 220 253 10,500  Level Houston Center
02:34PM 30.4501 -91.6163 257° West  Level FlightAware Approximate
02:34PM 30.3664 -91.1078 182° South 243 280 11,000  Level Houston Center
02:35PM 30.4159 -91.7052 227° Southwest  Level FlightAware Approximate
02:35PM 30.2631 -91.1128 182° South 290 334 11,000  Level Houston Center
02:36PM 30.3538 -91.7819 226° Southwest  Level FlightAware Approximate
02:36PM 30.1756 -91.1256 187° South 314 361 11,000  Level Houston Center
02:37PM 30.0953 -91.1572 199° South 301 346 11,900 1,500 Climbing Houston Center
02:38PM 30.0208 -91.1753 192° South 281 323 14,100 1,980 Climbing Houston Center
02:39PM 29.9364 -91.1847 186° South 298 343 16,100 1,680 Climbing Houston Center
02:41PM 29.8314 -91.1969 186° South 315 362 17,700 1,260 Climbing Houston Center
02:42PM 29.7442 -91.2414 204° Southwest 357 411 18,800 960 Climbing Houston Center
02:43PM 29.7153 -91.3553 254° West 383 441 19,700 540 Climbing Houston Center
02:44PM 29.6986 -91.4756 261° West 384 442 20,000 60 Climbing Houston Center
02:45PM 29.6831 -91.5978 262° West 387 445 19,900 -60 Descending Houston Center
02:46PM 29.6656 -91.7283 261° West 404 465 19,900  Level Houston Center
02:47PM 29.6464 -91.8825 262° West 407 468 20,000  Climbing Houston Center
02:48PM 29.6294 -92.0103 261° West 406 467 19,900  Descending Houston Center
02:49PM 29.6131 -92.1378 262° West 404 465 20,000  Climbing Houston Center
02:50PM 29.5958 -92.2658 261° West 405 466 20,000  Level Houston Center
02:51PM 29.5789 -92.3947 261° West 409 471 20,000 -60 Level Houston Center
02:52PM 29.5611 -92.5239 261° West 409 471 19,900  Descending Houston Center
02:53PM 29.5392 -92.6772 261° West 405 466 20,000  Climbing Houston Center
02:54PM 29.5219 -92.8053 261° West 406 467 20,000  Level Houston Center
02:55PM 29.5053 -92.9339 262° West 407 468 20,000  Level Houston Center
02:56PM 29.4864 -93.0650 261° West 413 475 20,000  Level Houston Center
02:57PM 29.4897 -93.1978 272° West 415 478 20,000 -60 Level Houston Center
02:58PM 29.4944 -93.3289 272° West 413 475 19,900  Descending Houston Center
02:59PM 29.4994 -93.4592 273° West 408 470 20,000  Climbing Houston Center
03:00PM 29.5067 -93.6169 273° West 411 473 20,000  Level Houston Center
03:01PM 29.5119 -93.7464 273° West 408 470 20,000 -540 Level Houston Center
03:02PM 29.5164 -93.8783 272° West 411 473 19,000 -1,500 Descending Houston Center
03:03PM 29.5214 -94.0042 273° West 400 460 17,000 -1,980 Descending Houston Center
03:04PM 29.5253 -94.1275 272° West 390 449 14,900 -2,100 Descending Houston Center
03:05PM 29.5281 -94.2208 272° West 376 433 13,500 -960 Descending Houston Center
03:06PM 29.5450 -94.3686 278° West 360 414 13,000 -660 Descending Houston Center
03:07PM 29.5761 -94.4478 294° West 350 403 12,200 -1,380 Descending Houston Center
03:08PM 29.6172 -94.5458 296° West 334 384 10,700 -1,680 Descending Houston Center
03:09PM 29.6550 -94.6325 297° West 296 341 8,800 -1,740 Descending Houston Center
03:10PM 29.7092 -94.6931 316° Northwest 271 312 7,200 -1,500 Descending Houston Center
03:11PM 29.7689 -94.7433 324° Northwest 255 293 5,800 -1,440 Descending Houston Center
03:12PM 29.8325 -94.7953 325° Northwest 259 298 4,300 -1,080 Descending Houston Center
03:13PM 29.8789 -94.8619 309° West 256 295 3,500 -660 Descending Houston Center
03:14PM 29.9072 -94.9403 293° West 265 305 3,000 -540 Descending Houston Center
03:15PM 29.9383 -95.0233 293° West 261 300 2,400 -540 Descending Houston Center
03:16PM 29.9644 -95.0997 292° West 261 300 2,000 -420 Descending Houston Center